Terminal Aerodrome Forecast
Issued by NWS

Home | Current Version | Previous Version | Text Only | Print | Product List | Glossary On
Versions: 1 2 3 4 5 6 7 8 9 10 11 12 13
000
FTUS46 KMTR 292348
TAFOAK
TAF
KOAK 292348Z 3000/3106 28015G21KT P6SM FEW030 SCT250
     FM300400 28012KT P6SM SCT012
     FM300800 27006KT P6SM SCT010
     FM301800 25008KT P6SM FEW015
     FM302100 27016G21KT P6SM FEW030
     FM310300 28012KT P6SM FEW020=

USA.gov is the U.S. government's official web portal to all federal, state and local government web resources and services.